Time;durP1;ratioP1;P1;durP2;ratioP2;P2;SDS_P1;SDS_P2;PMS_P1;PMS_P2;Temp;Humidity;BMP_temperature;BMP_pressure;BME280_temperature;BME280_humidity;BME280_pressure;Samples;Min_cycle;Max_cycle;Signal;HPM_P1;HPM_P2
2020/12/17 00:00:04;;;;;;;15.02;11.32;;;;;;;8.38;93.74;101171.66;4778419;29;20088;-88
2020/12/17 00:02:50;;;;;;;15.88;10.15;;;;;;;8.38;93.55;101182.41;4779207;29;20054;-87
2020/12/17 00:05:28;;;;;;;15.45;10.23;;;;;;;8.41;93.92;101170.59;4786123;29;20046;-86
2020/12/17 00:08:06;;;;;;;13.90;9.98;;;;;;;8.38;93.52;101173.50;4778688;29;20630;-88
2020/12/17 00:11:00;;;;;;;;;;;;;;;;;;;;;
2020/12/17 00:14:12;;;;;;;14.63;10.23;;;;;;;8.41;93.94;101179.47;4804602;29;20069;-90
2020/12/17 00:16:43;;;;;;;14.95;10.10;;;;;;;8.38;94.09;101174.34;4788414;29;20041;-89
2020/12/17 00:19:11;;;;;;;14.32;10.70;;;;;;;8.35;93.97;101177.25;4766344;29;20043;-88
2020/12/17 00:21:43;;;;;;;18.95;11.48;;;;;;;8.35;94.44;101174.59;4787011;29;20516;-87
2020/12/17 00:24:22;;;;;;;20.88;10.98;;;;;;;8.38;94.15;101178.88;4780350;29;20068;-88
2020/12/17 00:27:20;;;;;;;17.48;11.13;;;;;;;8.34;94.33;101172.00;4783217;29;20054;-90
2020/12/17 00:30:04;;;;;;;18.25;11.07;;;;;;;8.35;94.23;101171.91;4770476;29;20055;-89
2020/12/17 00:32:41;;;;;;;19.73;11.40;;;;;;;8.33;94.23;101178.34;4770913;29;20529;-88
2020/12/17 00:35:51;;;;;;;20.75;11.80;;;;;;;8.30;94.52;101171.38;4790701;29;20047;-88
2020/12/17 00:38:20;;;;;;;;;;;;;;;8.35;94.32;101169.22;4796924;29;20049;-87
2020/12/17 00:40:52;;;;;;;18.25;11.60;;;;;;;8.33;94.49;101164.94;4783074;29;19996;-88
2020/12/17 00:43:53;;;;;;;19.90;12.13;;;;;;;8.31;94.41;101159.69;4779318;29;20046;-89
2020/12/17 00:46:24;;;;;;;19.05;11.18;;;;;;;8.31;94.11;101151.63;4780984;29;20038;-87
2020/12/17 00:48:50;;;;;;;19.05;11.70;;;;;;;8.30;94.43;101160.63;4797530;29;20409;-86
2020/12/17 00:51:19;;;;;;;21.00;11.65;;;;;;;8.29;94.71;101156.28;4797678;29;20039;-88
2020/12/17 00:53:49;;;;;;;;;;;;;;;8.29;95.03;101158.06;4779949;29;20042;-86
2020/12/17 00:56:44;;;;;;;20.58;11.73;;;;;;;8.32;94.94;101161.41;4789741;29;19935;-90
2020/12/17 00:59:28;;;;;;;;;;;;;;;;;;;;;
2020/12/17 01:02:09;;;;;;;16.13;9.80;;;;;;;8.30;94.92;101168.69;4804981;29;20046;-91
2020/12/17 01:04:51;;;;;;;19.00;11.10;;;;;;;8.31;94.38;101165.03;4766262;29;20050;-89
2020/12/17 01:07:36;;;;;;;14.02;9.82;;;;;;;8.34;94.75;101172.84;4805420;29;20051;-86
2020/12/17 01:10:11;;;;;;;17.90;10.68;;;;;;;8.32;94.73;101172.13;4801564;29;20054;-89
2020/12/17 01:13:04;;;;;;;15.50;10.57;;;;;;;8.33;94.72;101172.97;4776326;29;20416;-86
2020/12/17 01:15:38;;;;;;;19.45;10.93;;;;;;;8.30;94.77;101168.69;4765485;29;20373;-87
2020/12/17 01:18:29;;;;;;;19.92;11.07;;;;;;;8.32;94.83;101169.44;4781048;29;20050;-90
2020/12/17 01:21:16;;;;;;;18.88;10.30;;;;;;;8.33;95.01;101168.50;4791596;29;20050;-90
2020/12/17 01:23:58;;;;;;;14.32;10.02;;;;;;;8.28;94.93;101180.53;4760051;29;20791;-88
2020/12/17 01:26:34;;;;;;;19.00;12.00;;;;;;;8.28;95.10;101167.97;4777090;29;20070;-88
2020/12/17 01:29:02;;;;;;;18.73;11.35;;;;;;;8.38;95.08;101179.72;4772881;29;20695;-90
2020/12/17 01:31:40;;;;;;;24.40;12.50;;;;;;;8.31;95.24;101180.28;4783406;29;21195;-90
2020/12/17 01:34:44;;;;;;;23.00;12.50;;;;;;;8.25;95.59;101169.03;4764293;29;20086;-88
2020/12/17 01:37:21;;;;;;;24.92;11.40;;;;;;;8.23;95.39;101172.81;4783288;29;20055;-89
2020/12/17 01:42:42;;;;;;;32.60;15.73;;;;;;;8.29;95.68;101166.13;4750987;29;20042;-87
2020/12/17 01:45:31;;;;;;;30.60;13.80;;;;;;;8.24;96.04;101169.16;4782981;29;20069;-88
2020/12/17 01:47:59;;;;;;;31.50;13.98;;;;;;;8.28;95.92;101170.63;4793802;29;20042;-90
2020/12/17 01:50:38;;;;;;;17.40;11.20;;;;;;;8.31;95.53;101169.56;4757126;29;20469;-88
2020/12/17 01:53:27;;;;;;;;;;;;;;;8.25;95.37;101168.19;4774906;29;20493;-90
2020/12/17 01:56:40;;;;;;;16.83;10.93;;;;;;;8.27;95.68;101178.81;4771439;29;19924;-85
2020/12/17 01:59:46;;;;;;;15.85;10.65;;;;;;;8.31;95.22;101175.78;4771324;29;20126;-88
2020/12/17 02:02:15;;;;;;;12.98;10.25;;;;;;;8.23;95.58;101168.31;4780102;29;20524;-89
2020/12/17 02:05:07;;;;;;;14.88;10.93;;;;;;;8.27;95.67;101168.06;4779169;29;20113;-88
2020/12/17 02:07:37;;;;;;;15.35;10.52;;;;;;;8.28;94.97;101165.28;4800946;29;20050;-88
2020/12/17 02:10:40;;;;;;;13.85;10.23;;;;;;;8.29;95.07;101161.63;4800236;29;20532;-86
2020/12/17 02:13:57;;;;;;;16.70;10.60;;;;;;;8.30;94.77;101168.69;4790872;29;20422;-86
2020/12/17 02:16:25;;;;;;;14.45;10.45;;;;;;;8.25;95.31;101170.88;4806121;29;20046;-87
2020/12/17 02:19:02;;;;;;;14.85;10.48;;;;;;;8.29;94.84;101164.31;4790644;29;20054;-87
2020/12/17 02:21:33;;;;;;;14.07;9.25;;;;;;;8.29;94.96;101166.13;4782483;29;20047;-88
2020/12/17 02:24:15;;;;;;;16.20;10.68;;;;;;;8.32;94.85;101168.56;4788912;29;20404;-86
2020/12/17 02:26:43;;;;;;;16.25;10.25;;;;;;;8.33;94.46;101167.63;4777626;29;20153;-86
2020/12/17 02:29:26;;;;;;;17.15;10.48;;;;;;;8.35;94.34;101166.53;4782552;29;20417;-86
2020/12/17 02:35:18;;;;;;;23.50;10.98;;;;;;;8.30;94.44;101163.31;4781207;29;20070;-88
2020/12/17 02:37:54;;;;;;;17.83;10.27;;;;;;;8.35;94.34;101168.38;4753646;29;20126;-87
2020/12/17 02:40:28;;;;;;;16.23;9.88;;;;;;;8.34;94.13;101163.97;4814159;29;20083;-88
2020/12/17 02:43:08;;;;;;;11.68;9.18;;;;;;;8.31;94.88;101159.69;4781782;29;20525;-89
2020/12/17 02:46:01;;;;;;;14.75;9.73;;;;;;;8.28;94.64;101146.50;4769053;29;20141;-88
2020/12/17 02:48:36;;;;;;;15.02;10.77;;;;;;;8.28;94.90;101154.56;4743749;29;20625;-88
2020/12/17 02:51:15;;;;;;;17.42;10.77;;;;;;;8.23;95.26;101146.84;4781830;29;20073;-87
2020/12/17 02:53:49;;;;;;;14.88;10.57;;;;;;;8.24;94.97;101142.34;4798066;29;20047;-88
2020/12/17 02:56:21;;;;;;;25.80;11.60;;;;;;;8.22;95.39;101144.28;4802168;29;20511;-88
2020/12/17 02:59:03;;;;;;;24.30;12.73;;;;;;;8.21;95.47;101151.44;4785950;29;20033;-88
2020/12/17 03:01:58;;;;;;;;;;;;;;;;;;;;;
2020/12/17 03:04:33;;;;;;;31.67;15.05;;;;;;;8.18;96.05;101145.47;4791084;29;20137;-87
2020/12/17 03:07:15;;;;;;;29.73;13.88;;;;;;;8.20;96.19;101156.94;4782254;29;20046;-87
2020/12/17 03:09:47;;;;;;;31.55;15.07;;;;;;;8.17;95.90;101151.78;4769650;29;20050;-88
2020/12/17 03:12:16;;;;;;;24.13;12.10;;;;;;;8.19;96.22;101161.44;4798530;29;20046;-86
2020/12/17 03:15:04;;;;;;;19.02;11.35;;;;;;;8.22;95.84;101165.72;4812630;29;20055;-90
2020/12/17 03:17:41;;;;;;;16.17;10.32;;;;;;;8.21;96.04;101161.34;4758290;29;20043;-90
2020/12/17 03:20:34;;;;;;;16.52;10.63;;;;;;;8.14;96.49;101149.34;4747465;29;20055;-88
2020/12/17 03:23:39;;;;;;;19.13;11.82;;;;;;;8.17;96.20;101157.16;4781664;29;20043;-89
2020/12/17 03:26:38;;;;;;;15.65;10.30;;;;;;;8.12;96.63;101153.97;4740950;29;20583;-88
2020/12/17 03:29:15;;;;;;;;;;;;;;;8.13;96.62;101156.53;4776685;29;20048;-88
2020/12/17 03:32:01;;;;;;;20.80;11.20;;;;;;;8.11;97.03;101155.78;4768733;29;20368;-87
2020/12/17 03:34:53;;;;;;;18.52;12.13;;;;;;;8.14;96.82;101157.38;4763095;29;20059;-88
2020/12/17 03:37:25;;;;;;;16.85;11.73;;;;;;;8.16;96.97;101148.28;4750546;29;20083;-88
2020/12/17 03:40:01;;;;;;;20.35;11.57;;;;;;;8.22;96.50;101155.00;4745610;29;20053;-88
2020/12/17 03:42:54;;;;;;;16.70;11.27;;;;;;;8.18;96.85;101157.03;4774772;29;20035;-87
2020/12/17 03:45:20;;;;;;;19.73;11.32;;;;;;;8.19;96.59;101144.50;4748270;30;20049;-88
2020/12/17 03:47:51;;;;;;;16.40;11.60;;;;;;;8.18;96.79;101154.38;4762242;29;20042;-88
2020/12/17 03:51:32;;;;;;;18.23;11.48;;;;;;;8.18;96.89;101153.53;4807369;29;20648;-87
2020/12/17 03:54:06;;;;;;;20.40;10.93;;;;;;;8.15;97.28;101148.38;4712329;30;20044;-87
2020/12/17 03:56:52;;;;;;;18.60;12.02;;;;;;;8.12;97.37;101148.63;4761265;29;20054;-89
2020/12/17 03:59:50;;;;;;;21.05;12.23;;;;;;;8.09;97.76;101143.47;4784564;29;20031;-88
2020/12/17 04:02:24;;;;;;;19.08;12.40;;;;;;;8.08;97.75;101139.94;4791189;29;20754;-87
2020/12/17 04:05:26;;;;;;;23.38;13.45;;;;;;;8.08;97.96;101142.59;4799704;29;20049;-87
2020/12/17 04:07:55;;;;;;;21.15;12.57;;;;;;;8.11;97.88;101138.84;4727641;29;20055;-87
2020/12/17 04:11:08;;;;;;;18.88;13.15;;;;;;;8.08;98.66;101142.59;4763275;29;20054;-87
2020/12/17 04:13:44;;;;;;;17.70;11.60;;;;;;;8.06;98.43;101150.75;4756604;29;20153;-87
2020/12/17 04:19:10;;;;;;;18.40;13.32;;;;;;;8.09;98.53;101143.47;4780431;29;20038;-85
2020/12/17 04:21:44;;;;;;;16.90;12.32;;;;;;;8.09;98.23;101146.16;4784843;29;20126;-87
2020/12/17 04:24:21;;;;;;;19.80;13.30;;;;;;;8.07;98.52;101151.63;4789138;29;20047;-86
2020/12/17 04:27:21;;;;;;;19.42;13.07;;;;;;;8.05;98.63;101141.03;4782882;29;20061;-87
2020/12/17 04:29:59;;;;;;;21.63;13.18;;;;;;;8.10;99.28;101145.16;4747171;29;20047;-86
2020/12/17 04:32:33;;;;;;;22.48;13.18;;;;;;;8.04;98.92;101141.16;4766205;29;20575;-86
2020/12/17 04:35:25;;;;;;;21.23;14.32;;;;;;;8.06;98.90;101149.91;4781797;29;20514;-86
2020/12/17 04:37:53;;;;;;;18.95;13.80;;;;;;;8.06;99.13;101156.13;4748786;29;20051;-86
2020/12/17 04:40:30;;;;;;;22.50;14.20;;;;;;;8.03;99.63;101156.34;4755150;29;20406;-86
2020/12/17 04:43:05;;;;;;;24.85;14.57;;;;;;;8.10;99.42;101161.25;4772471;29;20122;-86
2020/12/17 04:45:55;;;;;;;24.20;16.65;;;;;;;8.06;99.54;101161.47;4762684;29;20402;-87
2020/12/17 04:48:28;;;;;;;21.35;14.63;;;;;;;8.09;99.90;101159.56;4779976;29;20055;-86
2020/12/17 04:51:17;;;;;;;26.90;15.65;;;;;;;8.11;99.67;101160.31;4768973;29;20050;-87
2020/12/17 04:54:11;;;;;;;;;;;;;;;8.12;99.68;101164.69;4763785;29;20058;-85
2020/12/17 04:56:40;;;;;;;23.00;15.35;;;;;;;8.13;99.56;101172.63;4749908;29;19925;-87
2020/12/17 04:59:13;;;;;;;;;;;;;;;8.13;99.73;101166.41;4756613;29;20043;-87
2020/12/17 05:01:46;;;;;;;22.17;14.27;;;;;;;8.15;100.00;101176.03;4803828;29;19921;-86
2020/12/17 05:04:41;;;;;;;22.42;14.90;;;;;;;8.11;99.99;101174.53;4794259;29;20250;-85
2020/12/17 05:07:14;;;;;;;23.85;14.40;;;;;;;8.13;100.00;101175.31;4801502;29;20127;-87
2020/12/17 05:10:00;;;;;;;28.83;16.10;;;;;;;8.12;100.00;101178.94;4784453;29;20051;-88
2020/12/17 05:12:31;;;;;;;25.15;14.93;;;;;;;8.16;100.00;101174.22;4802006;29;20043;-85
2020/12/17 05:15:08;;;;;;;24.67;15.90;;;;;;;8.14;100.00;101181.50;4794374;29;20096;-87
2020/12/17 05:20:50;;;;;;;25.95;15.55;;;;;;;8.12;100.00;101184.31;4802601;29;20560;-86
2020/12/17 05:23:44;;;;;;;24.02;15.10;;;;;;;8.11;100.00;101184.44;4799657;29;20134;-87
2020/12/17 05:26:22;;;;;;;25.13;16.05;;;;;;;8.08;100.00;101193.53;4780148;29;20050;-87
2020/12/17 05:29:14;;;;;;;;;;;;;;;;;;;;;
2020/12/17 05:32:15;;;;;;;28.55;17.00;;;;;;;8.10;100.00;101194.31;4775400;29;21076;-87
2020/12/17 05:38:37;;;;;;;24.73;14.77;;;;;;;8.12;100.00;101207.59;4800155;29;20371;-87
2020/12/17 05:41:08;;;;;;;23.65;15.85;;;;;;;8.10;100.00;101209.50;4740045;29;20104;-87
2020/12/17 05:44:03;;;;;;;24.13;15.77;;;;;;;8.09;100.00;101213.19;4787982;29;20042;-87
2020/12/17 05:47:37;;;;;;;23.88;15.88;;;;;;;8.07;100.00;101211.47;4810702;29;20061;-85
2020/12/17 05:50:13;;;;;;;26.65;16.67;;;;;;;8.07;100.00;101216.81;4788438;29;20061;-86
2020/12/17 05:52:44;;;;;;;26.75;16.85;;;;;;;8.05;100.00;101223.25;4779844;29;20140;-86
2020/12/17 05:55:36;;;;;;;26.20;16.38;;;;;;;8.11;100.00;101232.69;4795060;29;20058;-86
2020/12/17 05:58:17;;;;;;;29.70;18.20;;;;;;;8.11;100.00;101230.00;4772311;29;20050;-86
2020/12/17 06:01:15;;;;;;;;;;;;;;;;;;;;;
2020/12/17 06:04:15;;;;;;;26.70;16.95;;;;;;;8.07;100.00;101242.78;4739206;29;20620;-86
2020/12/17 06:06:49;;;;;;;27.63;17.17;;;;;;;8.02;100.00;101251.16;4791130;29;20949;-86
2020/12/17 06:09:30;;;;;;;28.13;17.88;;;;;;;8.01;100.00;101248.56;4788769;29;20130;-85
2020/12/17 06:12:26;;;;;;;28.45;18.60;;;;;;;7.99;100.00;101246.00;4796612;29;20039;-86
2020/12/17 06:15:13;;;;;;;32.30;18.55;;;;;;;8.00;100.00;101250.41;4750652;29;20718;-87
2020/12/17 06:17:55;;;;;;;29.33;17.58;;;;;;;7.98;100.00;101252.34;4746875;29;20125;-86
2020/12/17 06:20:33;;;;;;;27.30;17.80;;;;;;;8.06;100.00;101263.34;4785625;29;20560;-86
2020/12/17 06:23:17;;;;;;;28.27;18.70;;;;;;;7.98;100.00;101265.75;4788428;29;20529;-86
2020/12/17 06:25:52;;;;;;;31.02;19.00;;;;;;;7.96;100.00;101264.97;4769516;29;20543;-85
2020/12/17 06:35:31;;;;;;;34.72;21.05;;;;;;;7.86;99.93;101282.69;4746467;30;20054;-86
2020/12/17 06:38:10;;;;;;;34.30;19.40;;;;;;;7.86;100.00;101291.59;4786923;29;20528;-85
2020/12/17 06:47:42;;;;;;;;;;;;;;;7.83;100.00;101305.22;4789925;29;20861;-86
2020/12/17 06:50:44;;;;;;;34.85;20.65;;;;;;;7.83;100.00;101312.38;4775002;29;19931;-87
2020/12/17 06:53:37;;;;;;;39.35;22.75;;;;;;;7.84;100.00;101308.75;4775918;29;20406;-90
2020/12/17 06:56:26;;;;;;;39.47;21.48;;;;;;;7.81;99.89;101323.19;4764518;29;20055;-86
2020/12/17 07:05:32;;;;;;;34.15;21.48;;;;;;;7.80;99.97;101342.06;4767575;29;20067;-86
2020/12/17 07:08:42;;;;;;;40.53;23.25;;;;;;;7.80;100.00;101353.66;4785461;29;20050;-90
2020/12/17 07:11:48;;;;;;;38.58;23.08;;;;;;;7.81;99.87;101349.16;4754003;29;20050;-87
2020/12/17 07:17:36;;;;;;;40.63;23.50;;;;;;;7.78;100.00;101360.09;4804812;29;20057;-85
2020/12/17 07:20:08;;;;;;;40.08;22.55;;;;;;;7.78;100.00;101363.63;4780619;29;20070;-85
2020/12/17 07:22:49;;;;;;;41.63;24.88;;;;;;;7.78;99.81;101370.81;4781324;29;20508;-86
2020/12/17 07:25:36;;;;;;;43.38;24.02;;;;;;;7.74;100.00;101369.28;4783147;29;20134;-85
2020/12/17 07:28:11;;;;;;;47.78;25.92;;;;;;;7.74;99.80;101371.97;4769642;29;20050;-86
2020/12/17 07:30:55;;;;;;;46.63;24.40;;;;;;;7.74;100.00;101382.69;4772554;29;20062;-87
2020/12/17 07:33:44;;;;;;;44.13;24.80;;;;;;;7.70;100.00;101382.91;4760231;29;20677;-87
2020/12/17 07:36:27;;;;;;;;;;;;;;;7.74;100.00;101396.09;4789353;29;20616;-86
2020/12/17 07:39:44;;;;;;;;;;;;;;;;;;;;;
2020/12/17 07:42:58;;;;;;;;;;;;;;;;;;;;;
2020/12/17 07:45:43;;;;;;;45.45;25.55;;;;;;;7.69;99.92;101399.94;4795520;29;20054;-86
2020/12/17 07:48:54;;;;;;;46.00;25.83;;;;;;;7.68;99.79;101395.53;4781390;29;20133;-88
2020/12/17 07:51:51;;;;;;;47.05;25.05;;;;;;;7.68;100.00;101403.56;4813486;29;20637;-87
2020/12/17 07:54:45;;;;;;;;;;;;;;;;;;;;;
2020/12/17 07:57:16;;;;;;;44.90;24.95;;;;;;;7.58;99.84;101417.69;4785350;29;20046;-87
2020/12/17 07:59:44;;;;;;;43.17;23.25;;;;;;;7.55;100.00;101424.09;4773143;29;20050;-86
2020/12/17 08:02:19;;;;;;;39.50;22.75;;;;;;;7.50;100.00;101423.56;4772311;29;20111;-85
2020/12/17 08:05:20;;;;;;;;;;;;;;;;;;;;;
2020/12/17 08:07:58;;;;;;;40.38;23.33;;;;;;;7.48;100.00;101422.78;4732578;30;20685;-86
2020/12/17 08:10:35;;;;;;;36.88;22.88;;;;;;;7.50;99.62;101420.91;4752885;29;20051;-87
2020/12/17 08:13:21;;;;;;;37.40;21.25;;;;;;;7.53;100.00;101423.38;4753926;29;20054;-86
2020/12/17 08:16:08;;;;;;;;;;;;;;;;;;;;;
2020/12/17 08:18:40;;;;;;;40.85;21.85;;;;;;;7.55;99.84;101432.16;4778652;29;20401;-85
2020/12/17 08:21:21;;;;;;;38.55;21.60;;;;;;;7.56;100.00;101430.34;4799939;29;20100;-85
2020/12/17 08:24:44;;;;;;;42.55;22.30;;;;;;;7.54;99.70;101420.59;4782570;29;20061;-86
2020/12/17 08:27:37;;;;;;;;;;;;;;;;;;;;;
2020/12/17 08:30:16;;;;;;;;;;;;;;;;;;;;;
2020/12/17 08:33:06;;;;;;;43.53;22.27;;;;;;;7.57;99.66;101435.59;4750378;29;20759;-88
2020/12/17 08:39:04;;;;;;;48.97;23.63;;;;;;;7.61;100.00;101445.16;4789727;29;20624;-87
2020/12/17 08:42:13;;;;;;;46.67;25.13;;;;;;;7.63;99.86;101445.91;4777543;29;20058;-86
2020/12/17 08:44:46;;;;;;;44.67;25.63;;;;;;;7.70;99.67;101449.88;4775061;29;20043;-85
2020/12/17 08:47:27;;;;;;;44.15;24.73;;;;;;;7.68;100.00;101451.78;4773382;29;20069;-86
2020/12/17 08:50:29;;;;;;;49.50;25.83;;;;;;;7.64;99.67;101447.63;4775738;29;20064;-87
2020/12/17 08:53:26;;;;;;;51.78;27.25;;;;;;;7.66;99.95;101458.25;4756312;29;20039;-89
2020/12/17 08:56:28;;;;;;;50.35;27.25;;;;;;;7.74;99.86;101455.88;4750383;29;20042;-87
2020/12/17 08:59:17;;;;;;;53.58;28.60;;;;;;;7.79;100.00;101453.78;4787181;29;20058;-85
2020/12/17 09:02:12;;;;;;;47.35;26.83;;;;;;;7.89;100.00;101468.25;4799432;29;20107;-89
2020/12/17 09:04:38;;;;;;;50.08;28.27;;;;;;;7.86;99.78;101471.16;4773958;29;20145;-85
2020/12/17 09:07:25;;;;;;;45.75;27.42;;;;;;;7.93;99.95;101468.91;4790180;29;20509;-91
2020/12/17 09:09:55;;;;;;;45.05;26.17;;;;;;;7.94;99.72;101477.81;4786946;29;20058;-88
2020/12/17 09:17:05;;;;;;;47.45;28.17;;;;;;;7.96;99.32;101474.06;4762406;29;20144;-87
2020/12/17 09:20:07;;;;;;;45.55;26.98;;;;;;;8.03;99.29;101482.56;4751206;30;20047;-89
2020/12/17 09:22:49;;;;;;;46.88;26.25;;;;;;;8.09;99.40;101489.31;4696386;30;20420;-89
2020/12/17 09:28:28;;;;;;;38.75;24.13;;;;;;;8.12;99.27;101491.78;4729716;29;20062;-88
2020/12/17 09:30:54;;;;;;;40.22;24.25;;;;;;;8.12;99.04;101497.16;4729812;30;20048;-88
2020/12/17 09:33:50;;;;;;;41.47;24.98;;;;;;;8.15;99.09;101503.16;4741012;29;20069;-89
2020/12/17 09:36:27;;;;;;;37.90;23.35;;;;;;;8.16;99.15;101504.88;4779193;29;20047;-87
2020/12/17 09:43:16;;;;;;;33.83;22.92;;;;;;;8.27;97.76;101514.00;4767609;29;20049;-86
2020/12/17 09:45:56;;;;;;;34.45;20.70;;;;;;;8.30;97.74;101522.69;4725260;30;20052;-86
2020/12/17 09:48:35;;;;;;;30.45;21.55;;;;;;;8.31;97.71;101524.44;4743401;29;25506;-87
2020/12/17 09:51:42;;;;;;;32.97;21.25;;;;;;;8.33;97.56;101533.25;4738047;30;20043;-86
2020/12/17 09:54:29;;;;;;;;;;;;;;;;;;;;;
2020/12/17 09:57:03;;;;;;;29.15;20.02;;;;;;;8.41;97.08;101533.56;4796448;29;20043;-87
2020/12/17 09:59:40;;;;;;;27.48;19.42;;;;;;;8.41;96.84;101538.94;4763595;29;20050;-85
2020/12/17 10:02:27;;;;;;;27.40;18.25;;;;;;;8.48;96.57;101530.47;4774969;29;20046;-89
2020/12/17 10:05:19;;;;;;;26.75;17.95;;;;;;;8.48;96.35;101539.41;4792611;29;20110;-85
2020/12/17 10:07:49;;;;;;;25.05;17.00;;;;;;;8.46;95.90;101545.84;4783482;29;20074;-85
2020/12/17 10:10:33;;;;;;;21.90;15.50;;;;;;;8.51;95.11;101543.69;4770761;29;20058;-85
2020/12/17 10:13:11;;;;;;;22.73;15.38;;;;;;;8.50;95.36;101555.41;4776885;29;20088;-86
2020/12/17 10:15:43;;;;;;;25.80;14.70;;;;;;;8.53;94.82;101556.03;4777625;29;20560;-87
2020/12/17 10:18:46;;;;;;;20.55;15.20;;;;;;;8.50;95.01;101558.09;4781559;29;20051;-86
2020/12/17 10:21:29;;;;;;;22.70;14.70;;;;;;;8.47;94.55;101563.66;4797557;29;20492;-87
2020/12/17 10:24:17;;;;;;;;;;;;;;;;;;;;;
2020/12/17 10:26:43;;;;;;;19.65;13.98;;;;;;;8.46;94.57;101575.34;4739014;29;20044;-84
2020/12/17 10:29:48;;;;;;;20.58;13.48;;;;;;;8.49;94.51;101583.19;4747311;29;20055;-86
2020/12/17 10:32:38;;;;;;;23.35;14.48;;;;;;;8.47;94.64;101585.97;4738518;29;20046;-87
2020/12/17 10:35:20;;;;;;;21.48;13.70;;;;;;;8.51;94.29;101574.06;4747635;29;20462;-85
2020/12/17 10:38:12;;;;;;;18.42;13.68;;;;;;;8.54;94.18;101583.75;4759252;29;20073;-86
2020/12/17 10:41:11;;;;;;;19.40;12.07;;;;;;;8.62;93.79;101586.75;4778509;29;20055;-85
2020/12/17 10:47:18;;;;;;;14.45;10.82;;;;;;;8.61;93.23;101597.59;4723833;30;20056;-88
2020/12/17 10:49:55;;;;;;;13.13;9.43;;;;;;;8.68;92.64;101602.41;4778401;29;20147;-86
2020/12/17 10:53:01;;;;;;;14.95;10.75;;;;;;;8.68;92.86;101586.31;4775901;29;20044;-86
2020/12/17 10:56:04;;;;;;;14.00;9.65;;;;;;;8.73;92.18;101597.59;4776024;29;21015;-86
2020/12/17 11:02:55;;;;;;;;;;;;;;;;;;;;;
2020/12/17 12:08:31;;;;;;;13.55;6.78;;;;;;;9.10;90.52;101624.56;3197883;28;20051;-85
2020/12/17 12:15:00;;;;;;;10.90;6.15;;;;;;;9.12;90.25;101614.56;4697286;29;20060;-85
2020/12/17 12:17:47;;;;;;;15.02;7.22;;;;;;;9.17;90.01;101624.13;4762674;29;20043;-85
2020/12/17 12:20:42;;;;;;;14.90;6.90;;;;;;;9.07;90.52;101630.16;4783307;29;20044;-86
2020/12/17 12:23:21;;;;;;;;;;;;;;;;;;;;;
2020/12/17 12:25:58;;;;;;;13.93;7.05;;;;;;;8.97;90.90;101634.44;4769395;30;20054;-85
2020/12/17 12:28:26;;;;;;;16.60;7.63;;;;;;;8.99;91.09;101632.50;4749210;29;20397;-87
2020/12/17 12:30:55;;;;;;;20.35;7.63;;;;;;;9.03;90.85;101635.84;4784897;29;20516;-86
2020/12/17 12:33:21;;;;;;;14.43;7.80;;;;;;;8.99;91.00;101637.03;4770473;29;20058;-86
2020/12/17 12:36:03;;;;;;;15.57;8.15;;;;;;;9.08;90.92;101644.44;4775008;29;20051;-90
2020/12/17 12:38:43;;;;;;;12.25;7.38;;;;;;;9.07;91.49;101643.59;4788791;29;20051;-86
2020/12/17 12:41:42;;;;;;;21.23;8.55;;;;;;;9.04;91.40;101640.22;4757985;29;20042;-86
2020/12/17 12:44:20;;;;;;;20.08;7.93;;;;;;;9.10;91.35;101637.16;4773653;29;20409;-85
2020/12/17 12:46:51;;;;;;;16.25;7.80;;;;;;;9.08;91.40;101641.75;4769864;29;20057;-89
2020/12/17 12:49:37;;;;;;;14.63;7.97;;;;;;;9.07;91.78;101651.63;4764645;29;20054;-85
2020/12/17 12:52:09;;;;;;;14.27;7.60;;;;;;;9.06;91.82;101643.69;4756471;29;20045;-85
2020/12/17 12:55:10;;;;;;;12.02;7.53;;;;;;;9.02;92.02;101642.19;4747351;29;21045;-87
2020/12/17 12:57:46;;;;;;;18.52;8.30;;;;;;;9.08;91.68;101652.47;4769561;29;20054;-87
2020/12/17 13:00:24;;;;;;;13.20;7.10;;;;;;;9.12;91.66;101654.00;4746275;29;20104;-85
2020/12/17 13:03:02;;;;;;;18.23;7.75;;;;;;;9.16;91.67;101650.13;4767456;30;20047;-87
2020/12/17 13:05:35;;;;;;;21.70;7.80;;;;;;;9.21;91.27;101647.13;4721401;29;20083;-86
2020/12/17 13:08:47;;;;;;;;;;;;;;;;;;;;;
2020/12/17 13:11:45;;;;;;;15.63;8.25;;;;;;;9.15;91.81;101653.78;4760100;29;21459;-87
2020/12/17 13:14:14;;;;;;;17.98;6.95;;;;;;;9.14;91.16;101654.75;4742793;29;20421;-85
2020/12/17 13:16:50;;;;;;;14.07;7.10;;;;;;;9.15;91.12;101653.78;4781774;29;20131;-86
2020/12/17 13:19:35;;;;;;;10.93;6.90;;;;;;;9.18;90.61;101663.47;4765177;30;20031;-86
2020/12/17 13:22:05;;;;;;;11.63;6.22;;;;;;;9.12;90.79;101654.84;4772057;29;20078;-85
2020/12/17 13:24:42;;;;;;;11.68;6.30;;;;;;;9.09;90.09;101665.81;4754869;29;20035;-89
2020/12/17 13:27:11;;;;;;;11.07;5.40;;;;;;;9.10;89.40;101661.31;4751172;29;20054;-87
2020/12/17 13:29:46;;;;;;;13.48;5.60;;;;;;;9.10;89.93;101655.94;4801004;29;20130;-86
2020/12/17 13:32:36;;;;;;;12.00;5.35;;;;;;;9.08;89.34;101664.09;4742205;29;20501;-86
2020/12/17 13:35:13;;;;;;;12.70;5.30;;;;;;;9.04;89.97;101670.66;4769291;29;20078;-86
2020/12/17 13:37:55;;;;;;;12.75;5.50;;;;;;;9.03;89.60;101676.97;4739430;29;20055;-86
2020/12/17 13:40:23;;;;;;;10.68;5.03;;;;;;;9.00;90.07;101671.81;4752210;29;20140;-85
2020/12/17 13:46:28;;;;;;;13.32;5.45;;;;;;;8.99;90.08;101675.47;4754270;29;20036;-85
2020/12/17 13:49:11;;;;;;;16.83;6.10;;;;;;;8.97;90.10;101676.56;4753706;29;20047;-86
2020/12/17 13:51:43;;;;;;;11.65;5.85;;;;;;;8.97;90.00;101674.72;4733589;29;20121;-86
2020/12/17 13:57:32;;;;;;;11.05;5.10;;;;;;;9.02;90.16;101691.38;4760206;29;20130;-85
2020/12/17 14:00:05;;;;;;;18.92;6.70;;;;;;;9.07;89.92;101691.91;4763922;29;20468;-84
2020/12/17 14:02:35;;;;;;;17.27;5.60;;;;;;;9.05;89.71;101691.16;4750200;29;20043;-84
2020/12/17 14:05:17;;;;;;;11.73;5.90;;;;;;;9.07;90.18;101693.75;4763902;29;20046;-85
2020/12/17 14:07:43;;;;;;;10.70;5.25;;;;;;;9.03;89.93;101697.63;4793733;29;20181;-84
2020/12/17 14:10:20;;;;;;;11.52;5.15;;;;;;;9.09;89.46;101694.50;4779623;29;20126;-85
2020/12/17 14:13:06;;;;;;;16.30;5.45;;;;;;;9.10;89.41;101705.13;4771529;29;20612;-84
2020/12/17 14:15:47;;;;;;;14.07;5.15;;;;;;;9.10;89.69;101698.91;4762143;29;20047;-85
2020/12/17 14:18:13;;;;;;;12.20;5.28;;;;;;;9.05;89.53;101709.94;4765690;29;20099;-85
2020/12/17 14:20:58;;;;;;;15.15;5.03;;;;;;;9.03;89.50;101717.25;4768442;29;20129;-84
2020/12/17 14:23:40;;;;;;;13.93;4.70;;;;;;;9.07;88.95;101715.25;4762491;29;20134;-85
2020/12/17 14:26:17;;;;;;;15.25;5.57;;;;;;;9.04;88.78;101721.69;4770901;29;20046;-85
2020/12/17 14:28:56;;;;;;;12.85;5.32;;;;;;;9.05;88.71;101723.38;4758144;29;20049;-86
2020/12/17 14:31:29;;;;;;;11.60;5.80;;;;;;;9.02;88.82;101728.97;4742674;29;20064;-85
2020/12/17 14:34:05;;;;;;;13.88;5.30;;;;;;;9.01;88.92;101732.63;4759052;29;20046;-84
2020/12/17 14:36:47;;;;;;;10.27;5.25;;;;;;;8.96;89.16;101734.75;4771631;29;20042;-86
2020/12/17 14:39:28;;;;;;;10.88;6.13;;;;;;;8.98;88.81;101743.56;4771680;29;20133;-85
2020/12/17 14:41:58;;;;;;;18.75;11.25;;;;;;;8.96;88.54;101742.81;4781519;29;20043;-87
2020/12/17 14:44:37;;;;;;;14.57;6.57;;;;;;;8.93;88.61;101740.31;4741458;29;20499;-86
2020/12/17 14:47:06;;;;;;;15.27;6.65;;;;;;;8.89;88.52;101739.69;4775316;29;20047;-85
2020/12/17 14:49:35;;;;;;;;;;;;;;;8.93;88.10;101756.44;4761272;29;20047;-84
2020/12/17 14:52:01;;;;;;;14.45;6.15;;;;;;;8.90;88.58;101748.59;4780832;29;19921;-84
2020/12/17 14:54:46;;;;;;;12.90;5.70;;;;;;;8.96;87.68;101756.22;4750478;29;20049;-83
2020/12/17 15:00:30;;;;;;;8.40;5.38;;;;;;;8.93;87.54;101757.28;4775545;29;20873;-86
2020/12/17 15:03:25;;;;;;;8.57;5.15;;;;;;;8.87;87.63;101763.06;4779047;29;20525;-83
2020/12/17 15:14:53;;;;;;;11.93;5.80;;;;;;;8.84;87.85;101790.13;4761955;29;20058;-83
2020/12/17 15:17:48;;;;;;;11.85;5.47;;;;;;;8.81;87.71;101786.81;4790645;29;20046;-84
2020/12/17 15:20:32;;;;;;;19.65;10.00;;;;;;;8.74;88.35;101789.88;4804885;29;20045;-84
2020/12/17 15:26:10;;;;;;;14.57;7.35;;;;;;;8.73;88.07;101804.28;4781366;29;20065;-85